Fort Washington, MD (20744)

11:02 AM EDT on September 20, 2014 (GMT -0400)
APRSWXNET Alexandria VA US | Change Station
CLOSE
Current Station
Personal Weather Station
Location: Alexandria, VA
Elevation: 52 ft
Nearby Weather Stations

Elev 52 ft 38.73 °N, 77.05 °W | Updated 28 minutes ago

Clear
Clear
73 °F
Feels Like 71 °F
N
0
Wind Variable Wind from East
Gusts 4.0 mph

Today
High -- | Low -- °F
--% Chance of Precip.
Yesterday
High -- | Low -- °F
Precip. -- in
6:53 AM 7:08 PM
Waning Crescent, 12% visible
Pressure 30.27 in
Visibility 10.0 miles
Clouds Few 2700 ft
Heat Index 71 °F
Dew Point 69 °F
Humidity 88%
Rainfall 0.00 in
Snow Depth Not available.
UV 5 out of 12
Pollen 4.10 out of 12
Air Quality Not available.
Flu Activity Not available.
METAR KADW 201458Z AUTO 15004KT 10SM FEW027 23/16 A3025 RMK AO2 SLP249 T02290161 55002 $

More Conditions Fewer Conditions

Pressure 30.27 in
Visibility 10.0 miles
Clouds Few 2700 ft
Heat Index 71 °F
Dew Point 69 °F
Humidity 88%
Rainfall 0.00 in
Snow Depth Not available.
UV 5 out of 12
Pollen 4.10 out of 12
Air Quality Not available.
Flu Activity Not available.
METAR KADW 201458Z AUTO 15004KT 10SM FEW027 23/16 A3025 RMK AO2 SLP249 T02290161 55002 $

More Conditions Fewer Conditions

10-Day Weather Forecast

Almanac

Astronomy

Sep. 20, 2014 Rise Set
Actual Time 6:53 AM EDT 7:08 PM EDT
Civil Twilight 6:27 AM EDT 7:34 PM EDT
Nautical Twilight 5:56 AM EDT 8:05 PM EDT
Astronomical Twilight 5:24 AM EDT 8:37 PM EDT
Moon 3:32 AM EDT 5:09 PM EDT
Length of Visible Light 13h 07m
Length of Day
12h 14m
Tomorrow will be 2m 29s shorter.
Waning Crescent, 12% of the Moon is Illuminated
Today
Waning Crescent
Sep 24
New
Oct 1
First Quarter
Oct 8
Full
Oct 15
Last Quarter

Today's Extremes

State Highs State Lows

Community

WunderPhotos

Upload Photos

1,754,876 photos uploaded!

WunderBlogs® & News

Nearby

Snow Depth

Station Depth Elevation
No new snow has been reported.

Earthquake Activity

City Distance Mag. Time & Date
No recent earthquake activity has been reported nearby.
Minimum magnitude displayed is 2.5.

Coastal Water Temperatures

Place Temperature
Washington, DC 73.9 °F
Baltimore, MD 75.9 °F
Solomons Island, MD 75.0 °F

Nearby Weather Stations